Terminal Aerodrome Forecast
Issued by NWS

Home | Current Version | Previous Version | Text Only | Print | Product List | Glossary On
Versions: 1 2 3 4 5 6 7 8 9 10 11 12 13 14
000
FTUS44 KTSA 070520
TAFRVS
TAF
KRVS 070520Z 0706/0806 VRB03KT 6SM -TSRA BKN040CB
      TEMPO 0706/0709 3SM -TSRA BKN025CB
     FM070900 07005KT 4SM -TSRA BKN025CB
     FM071200 04007KT 6SM -SHRA BKN015
     FM071700 04007KT P6SM VCTS OVC025CB
     FM080100 07007KT 3SM -TSRA BKN015CB=

USA.gov is the U.S. government's official web portal to all federal, state and local government web resources and services.